sensor_id;sensor_type;location;lat;lon;timestamp;temperature;humidity
32706;DHT22;19094;50.972;3.538;2022-07-25T00:02:16;26.60;50.60
32706;DHT22;19094;50.972;3.538;2022-07-25T00:04:42;26.60;50.10
32706;DHT22;19094;50.972;3.538;2022-07-25T00:07:07;26.60;50.10
32706;DHT22;19094;50.972;3.538;2022-07-25T00:09:33;26.60;50.20
32706;DHT22;19094;50.972;3.538;2022-07-25T00:11:59;26.60;50.20
32706;DHT22;19094;50.972;3.538;2022-07-25T00:14:25;26.60;50.20
32706;DHT22;19094;50.972;3.538;2022-07-25T00:16:51;26.50;50.20
32706;DHT22;19094;50.972;3.538;2022-07-25T00:19:17;26.60;50.30
32706;DHT22;19094;50.972;3.538;2022-07-25T00:21:43;26.50;50.30
32706;DHT22;19094;50.972;3.538;2022-07-25T00:24:09;26.50;50.30
32706;DHT22;19094;50.972;3.538;2022-07-25T00:26:35;26.50;50.40
32706;DHT22;19094;50.972;3.538;2022-07-25T00:29:00;26.50;50.40
32706;DHT22;19094;50.972;3.538;2022-07-25T00:31:26;26.50;50.50
32706;DHT22;19094;50.972;3.538;2022-07-25T00:33:52;26.50;50.50
32706;DHT22;19094;50.972;3.538;2022-07-25T00:36:18;26.40;50.50
32706;DHT22;19094;50.972;3.538;2022-07-25T00:38:43;26.40;50.50
32706;DHT22;19094;50.972;3.538;2022-07-25T00:41:09;26.40;50.60
32706;DHT22;19094;50.972;3.538;2022-07-25T00:43:35;26.40;50.70
32706;DHT22;19094;50.972;3.538;2022-07-25T00:46:01;26.40;50.70
32706;DHT22;19094;50.972;3.538;2022-07-25T00:48:27;26.40;50.70
32706;DHT22;19094;50.972;3.538;2022-07-25T00:50:54;26.40;50.70
32706;DHT22;19094;50.972;3.538;2022-07-25T00:53:20;26.40;50.80
32706;DHT22;19094;50.972;3.538;2022-07-25T00:55:45;26.40;50.80
32706;DHT22;19094;50.972;3.538;2022-07-25T00:58:12;26.30;50.80
32706;DHT22;19094;50.972;3.538;2022-07-25T01:00:38;26.40;50.90
32706;DHT22;19094;50.972;3.538;2022-07-25T01:03:03;26.40;50.90
32706;DHT22;19094;50.972;3.538;2022-07-25T01:05:29;26.30;50.80
32706;DHT22;19094;50.972;3.538;2022-07-25T01:07:55;26.30;50.90
32706;DHT22;19094;50.972;3.538;2022-07-25T01:10:21;26.30;50.90
32706;DHT22;19094;50.972;3.538;2022-07-25T01:12:54;26.30;50.90
32706;DHT22;19094;50.972;3.538;2022-07-25T01:15:23;26.30;51.20
32706;DHT22;19094;50.972;3.538;2022-07-25T01:17:50;26.30;51.00
32706;DHT22;19094;50.972;3.538;2022-07-25T01:20:22;26.30;51.00
32706;DHT22;19094;50.972;3.538;2022-07-25T01:22:49;26.30;51.00
32706;DHT22;19094;50.972;3.538;2022-07-25T01:25:15;26.30;51.10
32706;DHT22;19094;50.972;3.538;2022-07-25T01:27:42;26.30;51.00
32706;DHT22;19094;50.972;3.538;2022-07-25T01:30:10;26.30;51.10
32706;DHT22;19094;50.972;3.538;2022-07-25T01:32:37;26.20;51.00
32706;DHT22;19094;50.972;3.538;2022-07-25T01:35:04;26.20;51.20
32706;DHT22;19094;50.972;3.538;2022-07-25T01:37:30;26.20;51.00
32706;DHT22;19094;50.972;3.538;2022-07-25T01:39:56;26.20;51.00
32706;DHT22;19094;50.972;3.538;2022-07-25T01:42:22;26.20;51.00
32706;DHT22;19094;50.972;3.538;2022-07-25T01:44:48;26.20;51.00
32706;DHT22;19094;50.972;3.538;2022-07-25T01:47:14;26.20;51.00
32706;DHT22;19094;50.972;3.538;2022-07-25T01:49:42;26.20;51.00
32706;DHT22;19094;50.972;3.538;2022-07-25T01:52:07;26.20;51.00
32706;DHT22;19094;50.972;3.538;2022-07-25T01:54:33;26.20;51.10
32706;DHT22;19094;50.972;3.538;2022-07-25T01:56:58;26.20;51.10
32706;DHT22;19094;50.972;3.538;2022-07-25T01:59:24;26.20;51.10
32706;DHT22;19094;50.972;3.538;2022-07-25T02:01:50;26.20;51.10
32706;DHT22;19094;50.972;3.538;2022-07-25T02:04:15;26.20;51.10
32706;DHT22;19094;50.972;3.538;2022-07-25T02:06:41;26.20;51.20
32706;DHT22;19094;50.972;3.538;2022-07-25T02:09:07;26.20;51.30
32706;DHT22;19094;50.972;3.538;2022-07-25T02:11:33;26.20;51.20
32706;DHT22;19094;50.972;3.538;2022-07-25T02:13:59;26.10;51.20
32706;DHT22;19094;50.972;3.538;2022-07-25T02:16:25;26.10;51.30
32706;DHT22;19094;50.972;3.538;2022-07-25T02:18:50;26.10;51.30
32706;DHT22;19094;50.972;3.538;2022-07-25T02:21:16;26.10;51.30
32706;DHT22;19094;50.972;3.538;2022-07-25T02:23:43;26.10;51.30
32706;DHT22;19094;50.972;3.538;2022-07-25T02:26:10;26.10;51.30
32706;DHT22;19094;50.972;3.538;2022-07-25T02:28:36;26.10;51.30
32706;DHT22;19094;50.972;3.538;2022-07-25T02:31:01;26.00;51.20
32706;DHT22;19094;50.972;3.538;2022-07-25T02:33:27;26.00;51.20
32706;DHT22;19094;50.972;3.538;2022-07-25T02:35:53;26.00;51.20
32706;DHT22;19094;50.972;3.538;2022-07-25T02:38:18;26.00;51.10
32706;DHT22;19094;50.972;3.538;2022-07-25T02:40:49;26.00;51.10
32706;DHT22;19094;50.972;3.538;2022-07-25T02:43:15;26.00;51.10
32706;DHT22;19094;50.972;3.538;2022-07-25T02:45:41;26.00;51.00
32706;DHT22;19094;50.972;3.538;2022-07-25T02:48:07;25.90;50.90
32706;DHT22;19094;50.972;3.538;2022-07-25T02:50:33;25.90;51.00
32706;DHT22;19094;50.972;3.538;2022-07-25T02:52:59;25.90;51.00
32706;DHT22;19094;50.972;3.538;2022-07-25T02:55:24;25.90;50.80
32706;DHT22;19094;50.972;3.538;2022-07-25T02:57:50;25.90;51.00
32706;DHT22;19094;50.972;3.538;2022-07-25T03:00:16;25.90;50.90
32706;DHT22;19094;50.972;3.538;2022-07-25T03:02:42;25.80;50.80
32706;DHT22;19094;50.972;3.538;2022-07-25T03:05:13;25.90;50.80
32706;DHT22;19094;50.972;3.538;2022-07-25T03:07:40;25.90;50.70
32706;DHT22;19094;50.972;3.538;2022-07-25T03:10:07;25.90;51.40
32706;DHT22;19094;50.972;3.538;2022-07-25T03:12:33;25.90;50.70
32706;DHT22;19094;50.972;3.538;2022-07-25T03:15:00;25.90;50.80
32706;DHT22;19094;50.972;3.538;2022-07-25T03:17:27;25.80;50.70
32706;DHT22;19094;50.972;3.538;2022-07-25T03:19:56;25.80;50.50
32706;DHT22;19094;50.972;3.538;2022-07-25T03:22:23;25.80;50.50
32706;DHT22;19094;50.972;3.538;2022-07-25T03:24:49;25.90;50.60
32706;DHT22;19094;50.972;3.538;2022-07-25T03:27:15;25.90;50.50
32706;DHT22;19094;50.972;3.538;2022-07-25T03:29:40;25.80;50.40
32706;DHT22;19094;50.972;3.538;2022-07-25T03:32:07;25.90;50.40
32706;DHT22;19094;50.972;3.538;2022-07-25T03:34:33;25.80;50.20
32706;DHT22;19094;50.972;3.538;2022-07-25T03:36:59;25.80;50.30
32706;DHT22;19094;50.972;3.538;2022-07-25T03:39:26;25.80;50.20
32706;DHT22;19094;50.972;3.538;2022-07-25T03:41:52;25.80;50.00
32706;DHT22;19094;50.972;3.538;2022-07-25T03:44:18;25.80;50.20
32706;DHT22;19094;50.972;3.538;2022-07-25T03:46:44;25.80;50.20
32706;DHT22;19094;50.972;3.538;2022-07-25T03:49:10;25.80;50.00
32706;DHT22;19094;50.972;3.538;2022-07-25T03:51:36;25.80;50.10
32706;DHT22;19094;50.972;3.538;2022-07-25T03:54:02;25.80;50.30
32706;DHT22;19094;50.972;3.538;2022-07-25T03:56:30;25.70;50.30
32706;DHT22;19094;50.972;3.538;2022-07-25T03:58:56;25.70;50.30
32706;DHT22;19094;50.972;3.538;2022-07-25T04:01:22;25.70;50.40
32706;DHT22;19094;50.972;3.538;2022-07-25T04:03:47;25.70;50.30
32706;DHT22;19094;50.972;3.538;2022-07-25T04:06:13;25.70;50.50
32706;DHT22;19094;50.972;3.538;2022-07-25T04:08:38;25.60;50.60
32706;DHT22;19094;50.972;3.538;2022-07-25T04:11:04;25.60;50.70
32706;DHT22;19094;50.972;3.538;2022-07-25T04:13:30;25.60;50.70
32706;DHT22;19094;50.972;3.538;2022-07-25T04:15:56;25.60;50.80
32706;DHT22;19094;50.972;3.538;2022-07-25T04:18:21;25.50;50.90
32706;DHT22;19094;50.972;3.538;2022-07-25T04:20:47;25.50;51.00
32706;DHT22;19094;50.972;3.538;2022-07-25T04:23:12;25.40;51.00
32706;DHT22;19094;50.972;3.538;2022-07-25T04:25:38;25.40;50.90
32706;DHT22;19094;50.972;3.538;2022-07-25T04:28:04;25.40;51.10
32706;DHT22;19094;50.972;3.538;2022-07-25T04:30:29;25.40;51.20
32706;DHT22;19094;50.972;3.538;2022-07-25T04:32:55;25.40;51.40
32706;DHT22;19094;50.972;3.538;2022-07-25T04:35:21;25.40;51.40
32706;DHT22;19094;50.972;3.538;2022-07-25T04:37:47;25.40;51.50
32706;DHT22;19094;50.972;3.538;2022-07-25T04:40:13;25.30;51.50
32706;DHT22;19094;50.972;3.538;2022-07-25T04:42:38;25.30;51.60
32706;DHT22;19094;50.972;3.538;2022-07-25T04:45:04;25.30;51.60
32706;DHT22;19094;50.972;3.538;2022-07-25T04:47:30;25.30;51.70
32706;DHT22;19094;50.972;3.538;2022-07-25T04:49:56;25.30;51.70
32706;DHT22;19094;50.972;3.538;2022-07-25T04:52:21;25.30;51.80
32706;DHT22;19094;50.972;3.538;2022-07-25T04:54:47;25.30;51.90
32706;DHT22;19094;50.972;3.538;2022-07-25T04:57:13;25.20;51.80
32706;DHT22;19094;50.972;3.538;2022-07-25T04:59:38;25.20;51.90
32706;DHT22;19094;50.972;3.538;2022-07-25T05:02:04;25.20;51.90
32706;DHT22;19094;50.972;3.538;2022-07-25T05:04:30;25.20;52.00
32706;DHT22;19094;50.972;3.538;2022-07-25T05:06:55;25.20;52.00
32706;DHT22;19094;50.972;3.538;2022-07-25T05:09:21;25.20;52.00
32706;DHT22;19094;50.972;3.538;2022-07-25T05:11:46;25.20;52.10
32706;DHT22;19094;50.972;3.538;2022-07-25T05:14:12;25.20;52.10
32706;DHT22;19094;50.972;3.538;2022-07-25T05:16:38;25.20;52.10
32706;DHT22;19094;50.972;3.538;2022-07-25T05:19:03;25.20;52.10
32706;DHT22;19094;50.972;3.538;2022-07-25T05:21:29;25.20;52.20
32706;DHT22;19094;50.972;3.538;2022-07-25T05:23:55;25.20;52.20
32706;DHT22;19094;50.972;3.538;2022-07-25T05:26:20;25.20;52.90
32706;DHT22;19094;50.972;3.538;2022-07-25T05:28:46;25.20;52.20
32706;DHT22;19094;50.972;3.538;2022-07-25T05:31:12;25.20;52.20
32706;DHT22;19094;50.972;3.538;2022-07-25T05:33:38;25.20;52.30
32706;DHT22;19094;50.972;3.538;2022-07-25T05:36:04;25.20;52.30
32706;DHT22;19094;50.972;3.538;2022-07-25T05:38:30;25.20;52.20
32706;DHT22;19094;50.972;3.538;2022-07-25T05:40:56;25.20;52.30
32706;DHT22;19094;50.972;3.538;2022-07-25T05:43:21;25.20;52.40
32706;DHT22;19094;50.972;3.538;2022-07-25T05:45:47;25.20;52.40
32706;DHT22;19094;50.972;3.538;2022-07-25T05:48:13;25.20;52.40
32706;DHT22;19094;50.972;3.538;2022-07-25T05:50:39;25.20;52.40
32706;DHT22;19094;50.972;3.538;2022-07-25T05:53:05;25.20;52.40
32706;DHT22;19094;50.972;3.538;2022-07-25T05:55:31;25.20;52.40
32706;DHT22;19094;50.972;3.538;2022-07-25T05:57:57;25.20;52.40
32706;DHT22;19094;50.972;3.538;2022-07-25T06:00:23;25.20;52.40
32706;DHT22;19094;50.972;3.538;2022-07-25T06:02:49;25.20;52.60
32706;DHT22;19094;50.972;3.538;2022-07-25T06:05:15;25.20;52.70
32706;DHT22;19094;50.972;3.538;2022-07-25T06:07:40;25.20;52.70
32706;DHT22;19094;50.972;3.538;2022-07-25T06:10:07;25.20;52.80
32706;DHT22;19094;50.972;3.538;2022-07-25T06:12:33;25.20;53.00
32706;DHT22;19094;50.972;3.538;2022-07-25T06:14:59;25.20;52.90
32706;DHT22;19094;50.972;3.538;2022-07-25T06:17:25;25.20;52.90
32706;DHT22;19094;50.972;3.538;2022-07-25T06:19:51;25.20;52.90
32706;DHT22;19094;50.972;3.538;2022-07-25T06:22:17;25.30;53.60
32706;DHT22;19094;50.972;3.538;2022-07-25T06:24:44;25.30;53.10
32706;DHT22;19094;50.972;3.538;2022-07-25T06:27:10;25.30;53.20
32706;DHT22;19094;50.972;3.538;2022-07-25T06:29:36;25.30;53.10
32706;DHT22;19094;50.972;3.538;2022-07-25T06:32:03;25.30;53.30
32706;DHT22;19094;50.972;3.538;2022-07-25T06:34:28;25.30;53.30
32706;DHT22;19094;50.972;3.538;2022-07-25T06:36:54;25.30;53.40
32706;DHT22;19094;50.972;3.538;2022-07-25T06:39:21;25.30;53.40
32706;DHT22;19094;50.972;3.538;2022-07-25T06:41:47;25.30;53.40
32706;DHT22;19094;50.972;3.538;2022-07-25T06:44:13;25.40;53.40
32706;DHT22;19094;50.972;3.538;2022-07-25T06:46:38;25.40;53.60
32706;DHT22;19094;50.972;3.538;2022-07-25T06:49:04;25.40;53.60
32706;DHT22;19094;50.972;3.538;2022-07-25T06:51:30;25.40;53.80
32706;DHT22;19094;50.972;3.538;2022-07-25T06:53:55;25.40;54.00
32706;DHT22;19094;50.972;3.538;2022-07-25T06:56:21;25.40;54.40
32706;DHT22;19094;50.972;3.538;2022-07-25T06:58:47;25.40;54.80
32706;DHT22;19094;50.972;3.538;2022-07-25T07:01:12;25.50;54.60
32706;DHT22;19094;50.972;3.538;2022-07-25T07:03:38;25.50;54.80
32706;DHT22;19094;50.972;3.538;2022-07-25T07:06:05;25.50;55.00
32706;DHT22;19094;50.972;3.538;2022-07-25T07:08:32;25.50;54.60
32706;DHT22;19094;50.972;3.538;2022-07-25T07:10:58;25.50;54.00
32706;DHT22;19094;50.972;3.538;2022-07-25T07:13:23;25.50;54.50
32706;DHT22;19094;50.972;3.538;2022-07-25T07:15:50;25.50;54.20
32706;DHT22;19094;50.972;3.538;2022-07-25T07:18:17;25.50;54.30
32706;DHT22;19094;50.972;3.538;2022-07-25T07:20:42;25.50;54.60
32706;DHT22;19094;50.972;3.538;2022-07-25T07:23:08;25.40;54.00
32706;DHT22;19094;50.972;3.538;2022-07-25T07:25:34;25.40;54.00
32706;DHT22;19094;50.972;3.538;2022-07-25T07:28:01;25.40;53.90
32706;DHT22;19094;50.972;3.538;2022-07-25T07:30:27;25.50;53.60
32706;DHT22;19094;50.972;3.538;2022-07-25T07:32:52;25.50;53.70
32706;DHT22;19094;50.972;3.538;2022-07-25T07:35:18;25.50;53.40
32706;DHT22;19094;50.972;3.538;2022-07-25T07:37:45;25.50;53.20
32706;DHT22;19094;50.972;3.538;2022-07-25T07:40:12;25.50;53.10
32706;DHT22;19094;50.972;3.538;2022-07-25T07:42:39;25.50;53.00
32706;DHT22;19094;50.972;3.538;2022-07-25T07:45:19;25.50;52.90
32706;DHT22;19094;50.972;3.538;2022-07-25T07:47:47;25.60;53.50
32706;DHT22;19094;50.972;3.538;2022-07-25T07:50:14;25.60;53.10
32706;DHT22;19094;50.972;3.538;2022-07-25T07:52:41;25.60;53.00
32706;DHT22;19094;50.972;3.538;2022-07-25T07:55:07;25.60;52.90
32706;DHT22;19094;50.972;3.538;2022-07-25T07:57:52;25.70;52.70
32706;DHT22;19094;50.972;3.538;2022-07-25T08:00:18;25.70;52.90
32706;DHT22;19094;50.972;3.538;2022-07-25T08:02:52;25.70;52.60
32706;DHT22;19094;50.972;3.538;2022-07-25T08:05:29;25.80;53.00
32706;DHT22;19094;50.972;3.538;2022-07-25T08:07:55;25.80;52.30
32706;DHT22;19094;50.972;3.538;2022-07-25T08:10:23;25.90;51.80
32706;DHT22;19094;50.972;3.538;2022-07-25T08:12:49;25.90;52.00
32706;DHT22;19094;50.972;3.538;2022-07-25T08:15:16;25.90;51.90
32706;DHT22;19094;50.972;3.538;2022-07-25T08:17:43;26.00;51.90
32706;DHT22;19094;50.972;3.538;2022-07-25T08:20:09;26.00;51.80
32706;DHT22;19094;50.972;3.538;2022-07-25T08:22:43;26.00;52.40
32706;DHT22;19094;50.972;3.538;2022-07-25T08:25:12;26.00;51.90
32706;DHT22;19094;50.972;3.538;2022-07-25T08:27:38;26.00;51.90
32706;DHT22;19094;50.972;3.538;2022-07-25T08:30:05;26.00;52.00
32706;DHT22;19094;50.972;3.538;2022-07-25T08:32:31;26.00;51.90
32706;DHT22;19094;50.972;3.538;2022-07-25T08:34:57;26.00;52.00
32706;DHT22;19094;50.972;3.538;2022-07-25T08:37:23;26.00;52.00
32706;DHT22;19094;50.972;3.538;2022-07-25T08:39:49;26.00;52.00
32706;DHT22;19094;50.972;3.538;2022-07-25T08:42:19;26.00;51.70
32706;DHT22;19094;50.972;3.538;2022-07-25T08:44:55;26.00;51.90
32706;DHT22;19094;50.972;3.538;2022-07-25T08:47:22;26.00;51.90
32706;DHT22;19094;50.972;3.538;2022-07-25T08:49:48;26.00;51.80
32706;DHT22;19094;50.972;3.538;2022-07-25T08:52:14;26.00;51.80
32706;DHT22;19094;50.972;3.538;2022-07-25T08:54:40;26.00;51.70
32706;DHT22;19094;50.972;3.538;2022-07-25T08:57:07;26.00;51.90
32706;DHT22;19094;50.972;3.538;2022-07-25T08:59:32;26.00;51.70
32706;DHT22;19094;50.972;3.538;2022-07-25T09:01:58;26.10;51.60
32706;DHT22;19094;50.972;3.538;2022-07-25T09:04:28;26.10;51.70
32706;DHT22;19094;50.972;3.538;2022-07-25T09:06:54;26.10;51.80
32706;DHT22;19094;50.972;3.538;2022-07-25T09:09:29;26.00;51.60
32706;DHT22;19094;50.972;3.538;2022-07-25T09:11:55;26.00;51.90
32706;DHT22;19094;50.972;3.538;2022-07-25T09:14:21;26.00;51.70
32706;DHT22;19094;50.972;3.538;2022-07-25T09:16:46;26.00;51.90
32706;DHT22;19094;50.972;3.538;2022-07-25T09:19:18;26.00;51.70
32706;DHT22;19094;50.972;3.538;2022-07-25T09:21:45;26.00;51.80
32706;DHT22;19094;50.972;3.538;2022-07-25T09:24:21;25.90;51.60
32706;DHT22;19094;50.972;3.538;2022-07-25T09:26:52;25.90;51.70
32706;DHT22;19094;50.972;3.538;2022-07-25T09:29:24;25.90;51.80
32706;DHT22;19094;50.972;3.538;2022-07-25T09:31:50;25.90;51.80
32706;DHT22;19094;50.972;3.538;2022-07-25T09:34:31;25.90;51.80
32706;DHT22;19094;50.972;3.538;2022-07-25T09:36:59;25.80;51.80
32706;DHT22;19094;50.972;3.538;2022-07-25T09:39:42;25.90;51.80
32706;DHT22;19094;50.972;3.538;2022-07-25T09:42:31;25.80;51.90
32706;DHT22;19094;50.972;3.538;2022-07-25T09:45:01;25.80;51.70
32706;DHT22;19094;50.972;3.538;2022-07-25T09:47:28;25.80;51.80
32706;DHT22;19094;50.972;3.538;2022-07-25T09:49:55;25.80;51.80
32706;DHT22;19094;50.972;3.538;2022-07-25T09:52:21;25.80;51.90
32706;DHT22;19094;50.972;3.538;2022-07-25T09:54:48;25.70;51.90
32706;DHT22;19094;50.972;3.538;2022-07-25T09:57:14;25.80;52.00
32706;DHT22;19094;50.972;3.538;2022-07-25T09:59:40;25.80;51.90
32706;DHT22;19094;50.972;3.538;2022-07-25T10:02:09;25.80;51.90
32706;DHT22;19094;50.972;3.538;2022-07-25T10:04:46;25.80;51.90
32706;DHT22;19094;50.972;3.538;2022-07-25T10:07:15;25.90;51.80
32706;DHT22;19094;50.972;3.538;2022-07-25T10:09:45;25.90;51.50
32706;DHT22;19094;50.972;3.538;2022-07-25T10:12:14;26.00;51.50
32706;DHT22;19094;50.972;3.538;2022-07-25T10:15:20;26.00;51.40
32706;DHT22;19094;50.972;3.538;2022-07-25T10:17:46;26.00;51.30
32706;DHT22;19094;50.972;3.538;2022-07-25T10:20:12;26.00;51.10
32706;DHT22;19094;50.972;3.538;2022-07-25T10:22:43;26.00;51.00
32706;DHT22;19094;50.972;3.538;2022-07-25T10:25:19;26.00;50.80
32706;DHT22;19094;50.972;3.538;2022-07-25T10:27:51;26.00;51.00
32706;DHT22;19094;50.972;3.538;2022-07-25T10:30:24;26.00;51.10
32706;DHT22;19094;50.972;3.538;2022-07-25T10:35:38;26.10;51.00
32706;DHT22;19094;50.972;3.538;2022-07-25T10:38:04;26.10;50.90
32706;DHT22;19094;50.972;3.538;2022-07-25T10:40:37;26.10;51.00
32706;DHT22;19094;50.972;3.538;2022-07-25T10:43:17;26.10;51.00
32706;DHT22;19094;50.972;3.538;2022-07-25T10:48:29;26.10;51.00
32706;DHT22;19094;50.972;3.538;2022-07-25T10:53:37;26.10;50.60
32706;DHT22;19094;50.972;3.538;2022-07-25T10:56:08;26.10;50.30
32706;DHT22;19094;50.972;3.538;2022-07-25T10:58:46;26.10;49.80
32706;DHT22;19094;50.972;3.538;2022-07-25T11:01:13;26.10;49.90
32706;DHT22;19094;50.972;3.538;2022-07-25T11:03:40;26.10;50.30
32706;DHT22;19094;50.972;3.538;2022-07-25T11:06:10;26.10;49.70
32706;DHT22;19094;50.972;3.538;2022-07-25T11:08:35;26.20;49.90
32706;DHT22;19094;50.972;3.538;2022-07-25T11:11:01;26.20;49.80
32706;DHT22;19094;50.972;3.538;2022-07-25T11:13:27;26.20;49.70
32706;DHT22;19094;50.972;3.538;2022-07-25T11:15:59;26.30;49.60
32706;DHT22;19094;50.972;3.538;2022-07-25T11:18:39;26.30;49.70
32706;DHT22;19094;50.972;3.538;2022-07-25T11:21:06;26.30;48.90
32706;DHT22;19094;50.972;3.538;2022-07-25T11:23:35;26.30;49.70
32706;DHT22;19094;50.972;3.538;2022-07-25T11:26:09;26.40;48.90
32706;DHT22;19094;50.972;3.538;2022-07-25T11:28:46;26.40;48.50
32706;DHT22;19094;50.972;3.538;2022-07-25T11:31:13;26.40;49.00
32706;DHT22;19094;50.972;3.538;2022-07-25T11:33:41;26.40;48.90
32706;DHT22;19094;50.972;3.538;2022-07-25T11:36:09;26.40;48.70
32706;DHT22;19094;50.972;3.538;2022-07-25T11:38:35;26.40;48.90
32706;DHT22;19094;50.972;3.538;2022-07-25T11:41:01;26.40;49.20
32706;DHT22;19094;50.972;3.538;2022-07-25T11:43:27;26.50;48.90
32706;DHT22;19094;50.972;3.538;2022-07-25T11:45:59;26.50;49.20
32706;DHT22;19094;50.972;3.538;2022-07-25T11:48:38;26.50;48.20
32706;DHT22;19094;50.972;3.538;2022-07-25T11:51:22;26.50;47.90
32706;DHT22;19094;50.972;3.538;2022-07-25T11:53:50;26.50;48.00
32706;DHT22;19094;50.972;3.538;2022-07-25T11:56:18;26.60;48.00
32706;DHT22;19094;50.972;3.538;2022-07-25T11:58:55;26.60;48.30
32706;DHT22;19094;50.972;3.538;2022-07-25T12:01:22;26.60;47.60
32706;DHT22;19094;50.972;3.538;2022-07-25T12:03:49;26.60;47.80
32706;DHT22;19094;50.972;3.538;2022-07-25T12:06:15;26.70;48.00
32706;DHT22;19094;50.972;3.538;2022-07-25T12:08:41;26.80;46.90
32706;DHT22;19094;50.972;3.538;2022-07-25T12:11:19;26.80;46.90
32706;DHT22;19094;50.972;3.538;2022-07-25T12:13:44;26.80;46.50
32706;DHT22;19094;50.972;3.538;2022-07-25T12:16:10;26.90;46.40
32706;DHT22;19094;50.972;3.538;2022-07-25T12:18:37;27.00;47.90
32706;DHT22;19094;50.972;3.538;2022-07-25T12:21:03;27.00;46.60
32706;DHT22;19094;50.972;3.538;2022-07-25T12:23:29;27.00;45.80
32706;DHT22;19094;50.972;3.538;2022-07-25T12:25:55;27.10;46.40
32706;DHT22;19094;50.972;3.538;2022-07-25T12:28:20;27.10;46.50
32706;DHT22;19094;50.972;3.538;2022-07-25T12:30:46;27.10;46.20
32706;DHT22;19094;50.972;3.538;2022-07-25T12:33:13;27.10;47.10
32706;DHT22;19094;50.972;3.538;2022-07-25T12:35:40;27.10;47.10
32706;DHT22;19094;50.972;3.538;2022-07-25T12:38:06;27.00;46.80
32706;DHT22;19094;50.972;3.538;2022-07-25T12:40:33;27.00;46.70
32706;DHT22;19094;50.972;3.538;2022-07-25T12:42:59;26.90;46.60
32706;DHT22;19094;50.972;3.538;2022-07-25T12:45:25;26.90;46.60
32706;DHT22;19094;50.972;3.538;2022-07-25T12:47:51;26.90;45.90
32706;DHT22;19094;50.972;3.538;2022-07-25T12:50:17;26.90;46.50
32706;DHT22;19094;50.972;3.538;2022-07-25T12:52:43;26.90;45.80
32706;DHT22;19094;50.972;3.538;2022-07-25T12:55:15;26.90;45.40
32706;DHT22;19094;50.972;3.538;2022-07-25T12:57:41;26.90;45.50
32706;DHT22;19094;50.972;3.538;2022-07-25T13:00:10;26.90;47.10
32706;DHT22;19094;50.972;3.538;2022-07-25T13:02:36;26.90;46.90
32706;DHT22;19094;50.972;3.538;2022-07-25T13:05:02;26.90;46.50
32706;DHT22;19094;50.972;3.538;2022-07-25T13:07:28;26.90;46.80
32706;DHT22;19094;50.972;3.538;2022-07-25T13:09:54;26.90;47.20
32706;DHT22;19094;50.972;3.538;2022-07-25T13:12:19;26.90;46.60
32706;DHT22;19094;50.972;3.538;2022-07-25T13:14:47;27.00;46.20
32706;DHT22;19094;50.972;3.538;2022-07-25T13:17:12;27.00;46.40
32706;DHT22;19094;50.972;3.538;2022-07-25T13:19:38;27.10;46.00
32706;DHT22;19094;50.972;3.538;2022-07-25T13:22:04;27.00;45.90
32706;DHT22;19094;50.972;3.538;2022-07-25T13:24:30;27.10;46.40
32706;DHT22;19094;50.972;3.538;2022-07-25T13:26:56;27.10;45.10
32706;DHT22;19094;50.972;3.538;2022-07-25T13:29:21;27.10;46.20
32706;DHT22;19094;50.972;3.538;2022-07-25T13:31:47;27.10;45.90
32706;DHT22;19094;50.972;3.538;2022-07-25T13:34:13;27.10;45.70
32706;DHT22;19094;50.972;3.538;2022-07-25T13:36:38;27.10;45.90
32706;DHT22;19094;50.972;3.538;2022-07-25T13:39:05;27.10;46.20
32706;DHT22;19094;50.972;3.538;2022-07-25T13:41:31;27.10;45.70
32706;DHT22;19094;50.972;3.538;2022-07-25T13:43:57;27.10;46.20
32706;DHT22;19094;50.972;3.538;2022-07-25T13:46:23;27.20;45.30
32706;DHT22;19094;50.972;3.538;2022-07-25T13:48:48;27.30;45.60
32706;DHT22;19094;50.972;3.538;2022-07-25T13:51:14;27.30;45.00
32706;DHT22;19094;50.972;3.538;2022-07-25T13:53:40;27.40;45.30
32706;DHT22;19094;50.972;3.538;2022-07-25T13:56:06;27.30;45.50
32706;DHT22;19094;50.972;3.538;2022-07-25T13:58:31;27.30;45.20
32706;DHT22;19094;50.972;3.538;2022-07-25T14:00:57;27.30;45.10
32706;DHT22;19094;50.972;3.538;2022-07-25T14:03:23;27.30;46.00
32706;DHT22;19094;50.972;3.538;2022-07-25T14:05:49;27.30;45.10
32706;DHT22;19094;50.972;3.538;2022-07-25T14:08:14;27.20;45.50
32706;DHT22;19094;50.972;3.538;2022-07-25T14:10:40;27.20;45.50
32706;DHT22;19094;50.972;3.538;2022-07-25T14:13:06;27.10;45.30
32706;DHT22;19094;50.972;3.538;2022-07-25T14:15:31;27.10;45.80
32706;DHT22;19094;50.972;3.538;2022-07-25T14:17:57;27.00;45.60
32706;DHT22;19094;50.972;3.538;2022-07-25T14:20:23;27.00;45.50
32706;DHT22;19094;50.972;3.538;2022-07-25T14:22:49;27.00;45.20
32706;DHT22;19094;50.972;3.538;2022-07-25T14:25:14;27.00;46.30
32706;DHT22;19094;50.972;3.538;2022-07-25T14:27:41;26.90;45.70
32706;DHT22;19094;50.972;3.538;2022-07-25T14:30:07;27.00;46.80
32706;DHT22;19094;50.972;3.538;2022-07-25T14:32:34;27.00;45.30
32706;DHT22;19094;50.972;3.538;2022-07-25T14:34:59;27.20;45.70
32706;DHT22;19094;50.972;3.538;2022-07-25T14:37:26;27.30;44.90
32706;DHT22;19094;50.972;3.538;2022-07-25T14:39:53;27.30;45.10
32706;DHT22;19094;50.972;3.538;2022-07-25T14:42:18;27.40;44.90
32706;DHT22;19094;50.972;3.538;2022-07-25T14:44:44;27.40;44.70
32706;DHT22;19094;50.972;3.538;2022-07-25T14:47:10;27.40;45.10
32706;DHT22;19094;50.972;3.538;2022-07-25T14:49:35;27.40;45.10
32706;DHT22;19094;50.972;3.538;2022-07-25T14:52:01;27.40;44.80
32706;DHT22;19094;50.972;3.538;2022-07-25T14:54:27;27.30;45.60
32706;DHT22;19094;50.972;3.538;2022-07-25T14:56:56;27.20;45.40
32706;DHT22;19094;50.972;3.538;2022-07-25T14:59:22;27.20;45.50
32706;DHT22;19094;50.972;3.538;2022-07-25T15:01:48;27.10;46.00
32706;DHT22;19094;50.972;3.538;2022-07-25T15:04:13;27.00;45.70
32706;DHT22;19094;50.972;3.538;2022-07-25T15:06:39;27.00;46.10
32706;DHT22;19094;50.972;3.538;2022-07-25T15:09:05;27.00;46.10
32706;DHT22;19094;50.972;3.538;2022-07-25T15:11:31;27.00;46.40
32706;DHT22;19094;50.972;3.538;2022-07-25T15:13:56;27.00;46.50
32706;DHT22;19094;50.972;3.538;2022-07-25T15:16:23;26.90;45.60
32706;DHT22;19094;50.972;3.538;2022-07-25T15:18:49;26.90;45.70
32706;DHT22;19094;50.972;3.538;2022-07-25T15:21:15;26.90;46.50
32706;DHT22;19094;50.972;3.538;2022-07-25T15:23:41;26.80;46.10
32706;DHT22;19094;50.972;3.538;2022-07-25T15:26:07;26.80;46.00
32706;DHT22;19094;50.972;3.538;2022-07-25T15:28:34;26.80;45.90
32706;DHT22;19094;50.972;3.538;2022-07-25T15:31:01;26.70;45.90
32706;DHT22;19094;50.972;3.538;2022-07-25T15:33:27;26.70;46.70
32706;DHT22;19094;50.972;3.538;2022-07-25T15:35:53;26.60;46.20
32706;DHT22;19094;50.972;3.538;2022-07-25T15:38:19;26.60;46.80